Time;durP1;ratioP1;P1;durP2;ratioP2;P2;SDS_P1;SDS_P2;PMS_P1;PMS_P2;Temp;Humidity;BMP_temperature;BMP_pressure;BME280_temperature;BME280_humidity;BME280_pressure;Samples;Min_cycle;Max_cycle;Signal;HPM_P1;HPM_P2
2020/12/24 00:02:00;;;;;;;2.10;1.00;;;11.30;99.90;;;;;;4913250;29;20227;-85
2020/12/24 00:04:26;;;;;;;2.70;1.30;;;11.30;99.90;;;;;;4899054;29;20447;-87
2020/12/24 00:06:51;;;;;;;1.40;1.30;;;11.30;99.90;;;;;;4940419;28;20200;-84
2020/12/24 00:09:17;;;;;;;2.13;1.20;;;11.30;99.90;;;;;;4930812;29;20206;-87
2020/12/24 00:11:43;;;;;;;1.43;1.27;;;11.40;99.90;;;;;;4925635;29;20263;-86
2020/12/24 00:14:08;;;;;;;1.30;1.07;;;11.40;99.90;;;;;;4928343;29;20208;-86
2020/12/24 00:16:34;;;;;;;2.40;1.50;;;11.40;99.90;;;;;;4929260;29;20290;-85
2020/12/24 00:19:00;;;;;;;1.40;1.30;;;11.40;99.90;;;;;;4914466;29;20184;-87
2020/12/24 00:21:25;;;;;;;1.27;1.13;;;11.40;99.90;;;;;;4929785;29;20220;-84
2020/12/24 00:23:51;;;;;;;1.30;1.03;;;11.40;99.90;;;;;;4945971;28;20192;-85
2020/12/24 00:26:19;;;;;;;1.33;1.13;;;11.40;99.90;;;;;;4928091;29;20624;-87
2020/12/24 00:28:46;;;;;;;2.03;1.20;;;11.40;99.90;;;;;;4911507;29;20208;-87
2020/12/24 00:31:15;;;;;;;1.27;1.17;;;11.40;99.90;;;;;;4938911;28;20460;-86
2020/12/24 00:33:40;;;;;;;1.20;1.00;;;11.50;99.90;;;;;;4929560;29;20961;-85
2020/12/24 00:36:06;;;;;;;2.20;1.00;;;11.50;99.90;;;;;;4913347;29;20431;-85
2020/12/24 00:38:32;;;;;;;1.37;1.27;;;11.40;99.90;;;;;;4927125;29;20187;-86
2020/12/24 00:40:57;;;;;;;1.27;0.93;;;11.40;99.90;;;;;;4927109;29;20218;-86
2020/12/24 00:43:23;;;;;;;1.20;1.03;;;11.50;99.90;;;;;;4943319;28;20191;-87
2020/12/24 00:45:49;;;;;;;2.33;1.60;;;11.50;99.90;;;;;;4930380;29;20199;-85
2020/12/24 00:48:14;;;;;;;1.37;1.07;;;11.50;99.90;;;;;;4914522;29;20655;-86
2020/12/24 00:50:42;;;;;;;1.20;1.00;;;11.50;99.90;;;;;;4913567;29;20502;-85
2020/12/24 00:53:08;;;;;;;2.03;1.20;;;11.40;99.90;;;;;;4930356;29;20230;-86
2020/12/24 00:55:33;;;;;;;1.77;0.90;;;11.40;99.90;;;;;;4931965;29;20449;-86
2020/12/24 00:57:59;;;;;;;1.97;1.30;;;11.40;99.90;;;;;;4940017;28;20215;-87
2020/12/24 01:00:25;;;;;;;3.43;1.17;;;11.40;99.90;;;;;;4917878;29;20220;-87
2020/12/24 01:02:50;;;;;;;2.80;1.10;;;11.40;99.90;;;;;;4932315;29;20199;-86
2020/12/24 01:05:16;;;;;;;1.20;1.00;;;11.40;99.90;;;;;;4930887;29;20187;-84
2020/12/24 01:07:42;;;;;;;1.10;0.97;;;11.30;99.90;;;;;;4946280;28;20192;-86
2020/12/24 01:10:08;;;;;;;1.53;1.43;;;11.30;99.90;;;;;;4914723;29;20219;-85
2020/12/24 01:12:34;;;;;;;1.33;1.20;;;11.30;99.90;;;;;;4913358;29;20192;-87
2020/12/24 01:15:05;;;;;;;2.00;1.03;;;11.30;99.90;;;;;;4921737;29;20460;-87
2020/12/24 01:17:31;;;;;;;1.57;1.30;;;11.30;99.90;;;;;;4923248;29;20436;-86
2020/12/24 01:19:57;;;;;;;2.50;1.13;;;11.30;99.90;;;;;;4936004;29;20467;-86
2020/12/24 01:22:25;;;;;;;1.87;1.00;;;11.30;99.90;;;;;;4939024;29;20222;-85
2020/12/24 01:24:50;;;;;;;1.20;1.00;;;11.40;99.90;;;;;;4921646;29;20208;-84
2020/12/24 01:27:16;;;;;;;1.10;1.00;;;11.40;99.90;;;;;;4944471;28;20427;-87
2020/12/24 01:29:42;;;;;;;1.90;1.60;;;11.40;99.90;;;;;;4926469;29;20362;-86
2020/12/24 01:32:07;;;;;;;2.50;1.00;;;11.30;99.90;;;;;;4917251;29;20250;-87
2020/12/24 01:34:36;;;;;;;1.20;1.00;;;11.30;99.90;;;;;;4915892;29;20536;-86
2020/12/24 01:37:02;;;;;;;1.60;1.00;;;11.40;99.90;;;;;;4946365;28;20202;-87
2020/12/24 01:39:29;;;;;;;1.83;1.10;;;11.40;99.90;;;;;;4933444;29;20532;-87
2020/12/24 01:41:55;;;;;;;2.43;1.10;;;11.40;99.90;;;;;;4915826;29;20566;-86
2020/12/24 01:44:21;;;;;;;1.23;1.13;;;11.40;99.90;;;;;;4917181;29;20458;-86
2020/12/24 01:46:48;;;;;;;2.83;1.37;;;11.30;99.90;;;;;;4932927;29;20477;-86
2020/12/24 01:49:14;;;;;;;1.20;1.03;;;11.30;99.90;;;;;;4898783;29;20465;-86
2020/12/24 01:51:49;;;;;;;3.10;1.10;;;11.30;99.90;;;;;;4949049;28;20469;-87
2020/12/24 01:54:18;;;;;;;2.60;1.00;;;11.30;99.90;;;;;;4932958;29;20438;-84
2020/12/24 01:56:50;;;;;;;2.27;1.10;;;11.20;99.90;;;;;;4932932;29;20821;-87
2020/12/24 01:59:20;;;;;;;2.20;1.03;;;11.20;99.90;;;;;;4917497;29;20459;-86
2020/12/24 02:01:47;;;;;;;1.63;1.00;;;11.20;99.90;;;;;;4930619;29;20506;-86
2020/12/24 02:04:14;;;;;;;1.20;0.90;;;11.20;99.90;;;;;;4911458;29;20904;-85
2020/12/24 02:06:43;;;;;;;1.10;1.00;;;11.10;99.90;;;;;;4932914;29;20455;-86
2020/12/24 02:09:12;;;;;;;2.73;1.80;;;11.10;99.90;;;;;;4930730;29;20911;-85
2020/12/24 02:11:42;;;;;;;3.90;1.33;;;11.10;99.90;;;;;;4914361;29;20459;-85
2020/12/24 02:14:08;;;;;;;1.53;1.03;;;11.00;99.90;;;;;;4930915;29;20447;-86
2020/12/24 02:16:40;;;;;;;2.80;1.10;;;10.90;99.90;;;;;;4929587;29;20475;-86
2020/12/24 02:19:07;;;;;;;1.87;1.73;;;10.90;99.90;;;;;;4929807;29;20211;-86
2020/12/24 02:21:35;;;;;;;3.30;1.30;;;10.80;99.90;;;;;;4916001;29;20993;-86
2020/12/24 02:24:01;;;;;;;1.67;1.20;;;10.70;99.90;;;;;;4915976;29;20424;-86
2020/12/24 02:26:30;;;;;;;2.80;1.10;;;10.60;99.90;;;;;;4915274;29;20431;-86
2020/12/24 02:28:56;;;;;;;4.90;1.23;;;10.50;99.90;;;;;;4943523;28;20435;-86
2020/12/24 02:31:21;;;;;;;5.67;1.40;;;10.60;99.90;;;;;;4914700;29;20442;-86
2020/12/24 02:33:47;;;;;;;1.20;1.10;;;10.60;99.90;;;;;;4918034;29;20172;-86
2020/12/24 02:36:13;;;;;;;2.37;1.40;;;10.70;99.90;;;;;;4914336;29;20204;-86
2020/12/24 02:38:38;;;;;;;1.70;1.43;;;10.70;99.90;;;;;;4933536;29;20895;-85
2020/12/24 02:41:04;;;;;;;2.77;1.13;;;10.70;99.90;;;;;;4916373;29;20223;-85
2020/12/24 02:43:33;;;;;;;1.40;1.00;;;10.70;99.90;;;;;;4916118;29;20229;-86
2020/12/24 02:45:58;;;;;;;2.07;1.20;;;10.70;99.90;;;;;;4929682;29;20202;-86
2020/12/24 02:48:25;;;;;;;1.60;1.17;;;10.60;99.90;;;;;;4931328;29;20467;-85
2020/12/24 02:50:50;;;;;;;2.50;1.17;;;10.60;99.90;;;;;;4914059;29;20456;-85
2020/12/24 02:53:19;;;;;;;2.10;1.20;;;10.60;99.90;;;;;;4912647;29;20192;-85
2020/12/24 02:55:50;;;;;;;2.07;1.20;;;10.60;99.90;;;;;;4916942;29;20692;-84
2020/12/24 02:58:15;;;;;;;1.10;1.00;;;10.50;99.90;;;;;;4916550;29;20463;-86
2020/12/24 03:00:44;;;;;;;2.23;1.20;;;10.40;99.90;;;;;;4930731;29;20845;-85
2020/12/24 03:03:10;;;;;;;1.20;1.00;;;10.40;99.90;;;;;;4918949;29;20191;-86
2020/12/24 03:05:38;;;;;;;1.37;0.97;;;10.30;99.90;;;;;;4934461;29;20507;-85
2020/12/24 03:08:03;;;;;;;1.37;1.07;;;10.30;99.90;;;;;;4933981;29;20210;-86
2020/12/24 03:10:29;;;;;;;1.70;1.20;;;10.10;99.90;;;;;;4934704;29;20447;-88
2020/12/24 03:12:54;;;;;;;1.53;1.20;;;10.00;99.90;;;;;;4934465;29;20207;-87
2020/12/24 03:15:20;;;;;;;2.10;1.20;;;9.90;99.90;;;;;;4930010;29;20759;-86
2020/12/24 03:17:48;;;;;;;1.43;1.17;;;9.80;99.90;;;;;;4931327;29;20257;-86
2020/12/24 03:20:17;;;;;;;1.10;1.00;;;9.90;99.90;;;;;;4942342;28;20573;-86
2020/12/24 03:22:43;;;;;;;1.20;1.00;;;9.90;99.90;;;;;;4916760;29;20494;-86
2020/12/24 03:25:08;;;;;;;1.47;1.03;;;9.80;99.90;;;;;;4912756;29;20451;-89
2020/12/24 03:27:37;;;;;;;2.73;1.10;;;9.70;99.90;;;;;;4945474;28;20969;-87
2020/12/24 03:30:08;;;;;;;2.40;1.30;;;9.60;99.90;;;;;;4915520;29;20217;-88
2020/12/24 03:32:33;;;;;;;3.83;0.90;;;9.50;99.90;;;;;;4929716;29;20440;-86
2020/12/24 03:34:59;;;;;;;2.93;1.10;;;9.40;99.90;;;;;;4933009;29;20435;-86
2020/12/24 03:37:25;;;;;;;2.60;1.13;;;9.40;99.90;;;;;;4945856;28;20947;-86
2020/12/24 03:39:50;;;;;;;1.77;1.20;;;9.40;99.90;;;;;;4917556;29;20212;-86
2020/12/24 03:42:16;;;;;;;1.63;1.00;;;9.30;99.90;;;;;;4916243;29;20212;-86
2020/12/24 03:44:42;;;;;;;1.93;1.00;;;9.30;99.90;;;;;;4928772;29;20583;-86
2020/12/24 03:47:07;;;;;;;1.10;1.00;;;9.20;99.90;;;;;;4932534;29;20231;-86
2020/12/24 03:49:33;;;;;;;1.83;1.10;;;9.20;99.90;;;;;;4947666;28;20290;-86
2020/12/24 03:52:01;;;;;;;1.53;1.00;;;9.00;99.90;;;;;;4934149;29;20204;-86
2020/12/24 03:54:30;;;;;;;2.30;1.00;;;9.00;99.90;;;;;;4917436;29;20213;-85
2020/12/24 03:57:01;;;;;;;3.97;1.30;;;9.00;99.90;;;;;;4933139;29;20454;-87
2020/12/24 03:59:26;;;;;;;1.90;1.10;;;9.10;99.90;;;;;;4936585;29;20470;-87
2020/12/24 04:01:52;;;;;;;3.77;1.00;;;9.10;99.90;;;;;;4919764;29;20472;-86
2020/12/24 04:04:41;;;;;;;1.17;1.00;;;9.10;99.90;;;;;;4935636;29;20255;-90
2020/12/24 04:07:07;;;;;;;1.23;1.13;;;9.10;99.90;;;;;;4907918;29;20200;-88
2020/12/24 04:09:46;;;;;;;1.60;1.27;;;9.00;99.90;;;;;;4931901;29;20969;-86
2020/12/24 04:12:12;;;;;;;1.40;1.10;;;8.90;99.90;;;;;;4915919;29;20248;-88
2020/12/24 04:14:38;;;;;;;3.10;1.07;;;8.80;99.90;;;;;;4917368;29;20447;-86
2020/12/24 04:17:03;;;;;;;2.23;1.30;;;8.90;99.90;;;;;;4929372;29;20192;-88
2020/12/24 04:19:29;;;;;;;7.23;1.13;;;8.80;99.90;;;;;;4931965;29;20510;-87
2020/12/24 04:21:55;;;;;;;3.83;1.03;;;8.80;99.90;;;;;;4915347;29;20241;-87
2020/12/24 04:24:20;;;;;;;2.10;1.30;;;8.80;99.90;;;;;;4914017;29;20273;-87
2020/12/24 04:26:46;;;;;;;1.33;1.03;;;8.90;99.90;;;;;;4918532;29;20211;-87
2020/12/24 04:29:14;;;;;;;1.60;1.10;;;9.00;99.90;;;;;;4919336;29;20184;-86
2020/12/24 04:31:41;;;;;;;1.67;1.03;;;8.90;99.90;;;;;;4915868;29;20196;-85
2020/12/24 04:34:07;;;;;;;1.47;1.20;;;8.80;99.90;;;;;;4947716;28;21171;-86
2020/12/24 04:36:32;;;;;;;1.00;0.80;;;8.80;99.90;;;;;;4945169;28;20455;-88
2020/12/24 04:39:09;;;;;;;4.13;1.30;;;8.70;99.90;;;;;;4932860;29;20677;-88
2020/12/24 04:41:35;;;;;;;1.20;0.90;;;8.60;99.90;;;;;;4917286;29;20211;-86
2020/12/24 04:44:28;;;;;;;1.53;0.90;;;8.70;99.90;;;;;;4931310;29;20503;-87
2020/12/24 04:46:57;;;;;;;1.43;1.20;;;8.60;99.90;;;;;;4927664;29;20679;-85
2020/12/24 04:49:31;;;;;;;2.37;1.07;;;8.60;99.90;;;;;;4942164;28;20507;-88
2020/12/24 04:52:01;;;;;;;4.00;1.17;;;8.70;99.90;;;;;;4919293;29;20794;-84
2020/12/24 04:54:32;;;;;;;1.93;1.10;;;8.70;99.90;;;;;;4916599;29;20440;-85
2020/12/24 04:57:05;;;;;;;1.10;1.00;;;8.80;99.90;;;;;;4918936;29;20487;-86
2020/12/24 04:59:32;;;;;;;2.13;0.93;;;8.80;99.90;;;;;;4917201;29;20464;-86
2020/12/24 05:02:02;;;;;;;1.10;0.90;;;8.90;99.90;;;;;;4916745;29;20479;-85
2020/12/24 05:04:29;;;;;;;3.60;0.93;;;8.90;99.90;;;;;;4930291;29;20459;-85
2020/12/24 05:07:02;;;;;;;2.03;1.00;;;8.90;99.90;;;;;;4933937;29;20499;-84
2020/12/24 05:09:28;;;;;;;1.00;0.90;;;9.00;99.90;;;;;;4931702;29;20443;-87
2020/12/24 05:11:54;;;;;;;3.63;1.17;;;9.00;99.90;;;;;;4932346;29;20444;-86
2020/12/24 05:14:22;;;;;;;1.53;1.03;;;9.10;99.90;;;;;;4914631;29;20210;-86
2020/12/24 05:17:05;;;;;;;2.93;1.07;;;9.10;99.90;;;;;;4930663;29;20436;-83
2020/12/24 05:19:34;;;;;;;1.80;1.23;;;9.20;99.90;;;;;;4912372;29;20459;-84
2020/12/24 05:22:24;;;;;;;2.37;1.20;;;9.20;99.90;;;;;;4912156;29;20484;-86
2020/12/24 05:24:50;;;;;;;1.83;1.10;;;9.30;99.90;;;;;;4911693;29;20440;-85
2020/12/24 05:27:23;;;;;;;1.03;0.90;;;9.30;99.90;;;;;;4911814;29;20432;-85
2020/12/24 05:29:51;;;;;;;3.57;1.33;;;9.40;99.90;;;;;;4930368;29;20219;-83
2020/12/24 05:32:28;;;;;;;1.60;1.30;;;9.50;99.90;;;;;;4926127;29;20454;-85
2020/12/24 05:35:12;;;;;;;1.20;1.00;;;9.60;99.90;;;;;;4914210;29;20439;-85
2020/12/24 05:37:37;;;;;;;2.97;1.30;;;9.60;99.90;;;;;;4915712;29;20436;-85
2020/12/24 05:40:17;;;;;;;2.53;2.10;;;9.70;99.90;;;;;;4933927;29;20985;-86
2020/12/24 05:42:50;;;;;;;1.20;1.00;;;9.80;99.90;;;;;;4934192;29;20467;-87
2020/12/24 05:45:21;;;;;;;3.97;1.60;;;9.70;99.90;;;;;;4930860;29;20467;-87
2020/12/24 05:47:46;;;;;;;1.53;1.37;;;9.70;99.90;;;;;;4914682;29;20511;-86
2020/12/24 05:50:25;;;;;;;4.00;1.07;;;9.70;99.90;;;;;;4933347;29;20479;-84
2020/12/24 05:53:28;;;;;;;2.90;1.17;;;9.70;99.90;;;;;;4929472;29;20985;-86
2020/12/24 05:55:58;;;;;;;1.23;1.10;;;9.80;99.90;;;;;;4914356;29;23019;-86
2020/12/24 05:58:26;;;;;;;1.30;1.10;;;9.80;99.90;;;;;;4914580;29;20536;-85
2020/12/24 06:01:00;;;;;;;2.43;1.10;;;9.90;99.90;;;;;;4945619;28;20498;-85
2020/12/24 06:04:00;;;;;;;1.50;1.10;;;10.00;99.90;;;;;;4932205;29;20438;-83
2020/12/24 06:06:43;;;;;;;1.70;1.47;;;10.00;99.90;;;;;;4930221;29;20435;-84
2020/12/24 06:09:15;;;;;;;3.33;1.20;;;10.00;99.90;;;;;;4945020;28;20451;-86
2020/12/24 06:11:49;;;;;;;1.60;1.30;;;9.90;99.90;;;;;;4933399;29;20468;-86
2020/12/24 06:14:27;;;;;;;1.20;1.00;;;9.70;99.90;;;;;;4940698;28;20440;-85
2020/12/24 06:17:02;;;;;;;3.63;1.27;;;9.50;99.90;;;;;;4941100;28;20435;-86
2020/12/24 06:19:37;;;;;;;2.30;0.90;;;9.30;99.90;;;;;;4939765;28;20456;-86
2020/12/24 06:22:06;;;;;;;9.30;1.53;;;9.20;99.90;;;;;;4928014;29;20498;-87
2020/12/24 06:24:37;;;;;;;2.43;1.33;;;9.10;99.90;;;;;;4928173;29;20447;-88
2020/12/24 06:27:10;;;;;;;13.00;1.57;;;9.00;99.90;;;;;;4912949;29;20935;-87
2020/12/24 06:29:41;;;;;;;1.63;0.90;;;9.00;99.90;;;;;;4929451;29;20458;-89
2020/12/24 06:32:09;;;;;;;3.13;1.30;;;8.90;99.90;;;;;;4929203;29;20491;-87
2020/12/24 06:34:40;;;;;;;3.30;2.30;;;8.90;99.90;;;;;;4933449;29;20462;-88
2020/12/24 06:37:19;;;;;;;4.23;1.30;;;8.80;99.90;;;;;;4903016;29;20447;-88
2020/12/24 06:39:52;;;;;;;5.13;1.33;;;8.70;99.90;;;;;;4915886;29;20467;-87
2020/12/24 06:42:45;;;;;;;4.50;1.40;;;8.60;99.90;;;;;;4914273;29;20519;-90
2020/12/24 06:45:32;;;;;;;3.33;1.30;;;8.60;99.90;;;;;;4929064;29;20522;-87
2020/12/24 06:48:16;;;;;;;1.93;1.40;;;8.50;99.90;;;;;;4912861;29;20447;-88
2020/12/24 06:50:51;;;;;;;3.93;1.73;;;8.40;99.90;;;;;;4929508;29;20451;-87
2020/12/24 06:53:30;;;;;;;1.27;1.13;;;8.30;99.90;;;;;;4916980;29;21510;-87
2020/12/24 06:56:14;;;;;;;1.23;1.13;;;8.30;99.90;;;;;;4929422;29;20443;-87
2020/12/24 06:58:46;;;;;;;3.90;1.10;;;8.30;99.90;;;;;;4941912;28;20477;-89
2020/12/24 07:01:20;;;;;;;3.97;1.10;;;8.30;99.90;;;;;;4945602;28;20513;-87
2020/12/24 07:03:52;;;;;;;5.53;1.20;;;8.30;99.90;;;;;;4915145;29;20436;-88
2020/12/24 07:06:40;;;;;;;1.20;1.03;;;8.40;99.90;;;;;;4928993;29;20437;-88
2020/12/24 07:09:18;;;;;;;6.00;2.80;;;8.30;99.90;;;;;;4944653;28;20433;-89
2020/12/24 07:11:52;;;;;;;1.27;0.90;;;8.30;99.90;;;;;;4933372;28;20447;-88
2020/12/24 07:14:54;;;;;;;16.87;1.73;;;8.30;99.90;;;;;;4941592;28;20436;-89
2020/12/24 07:17:20;;;;;;;2.13;1.10;;;8.20;99.90;;;;;;4914082;29;20522;-88
2020/12/24 07:19:50;;;;;;;2.23;1.30;;;8.10;99.90;;;;;;4913569;29;21035;-88
2020/12/24 07:22:21;;;;;;;9.20;1.13;;;8.10;99.90;;;;;;4935508;29;20470;-89
2020/12/24 07:25:02;;;;;;;1.60;1.30;;;8.00;99.90;;;;;;4949206;28;20451;-90
2020/12/24 07:27:55;;;;;;;4.63;1.23;;;8.00;99.90;;;;;;4936257;29;20459;-90
2020/12/24 07:30:30;;;;;;;3.47;1.50;;;7.90;99.90;;;;;;4917762;29;20463;-89
2020/12/24 07:33:02;;;;;;;1.53;1.30;;;7.90;99.90;;;;;;4916272;29;20442;-88
2020/12/24 07:35:43;;;;;;;3.80;1.73;;;7.90;99.90;;;;;;4913821;29;20458;-88
2020/12/24 07:38:32;;;;;;;1.63;1.20;;;7.90;99.90;;;;;;4941570;28;20491;-89
2020/12/24 07:41:20;;;;;;;3.13;1.67;;;7.80;99.90;;;;;;4902220;29;20479;-88
2020/12/24 07:43:57;;;;;;;4.40;1.60;;;7.80;99.90;;;;;;4911073;29;20458;-89
2020/12/24 07:46:28;;;;;;;1.60;1.30;;;7.80;99.90;;;;;;4928554;29;20463;-88
2020/12/24 07:49:02;;;;;;;1.67;1.10;;;7.70;99.90;;;;;;4915991;29;20474;-85
2020/12/24 07:52:10;;;;;;;;;;;;;;;;;;;;;
2020/12/24 08:00:56;;;;;;;2.03;1.37;;;7.70;99.90;;;;;;4932017;29;21081;-89
2020/12/24 08:03:56;;;;;;;7.30;1.60;;;7.60;99.90;;;;;;4898188;29;20527;-88
2020/12/24 08:06:22;;;;;;;1.20;0.90;;;7.60;99.90;;;;;;4920654;29;20456;-86
2020/12/24 08:28:29;;;;;;;3.73;1.40;;;7.60;99.90;;;;;;4951953;28;20477;-88
2020/12/24 11:18:48;;;;;;;1.57;1.10;;;9.80;99.90;;;;;;4951717;28;20423;-88
2020/12/24 11:21:37;;;;;;;1.67;1.10;;;10.00;99.90;;;;;;4904234;29;20495;-89
2020/12/24 11:24:07;;;;;;;2.20;1.57;;;10.20;99.90;;;;;;4931746;29;20428;-90
2020/12/24 11:26:50;;;;;;;;;;;;;;;;;;;;;
2020/12/24 11:29:16;;;;;;;2.60;1.20;;;10.20;99.90;;;;;;4932055;29;20467;-90
2020/12/24 11:31:45;;;;;;;2.33;1.07;;;10.30;99.90;;;;;;4929862;29;20520;-88
2020/12/24 11:34:26;;;;;;;2.83;1.37;;;10.40;99.90;;;;;;4931150;29;20199;-86
2020/12/24 11:37:24;;;;;;;1.47;1.20;;;10.40;99.90;;;;;;4915373;29;20508;-89
2020/12/24 11:40:09;;;;;;;1.07;0.93;;;10.30;99.90;;;;;;4914707;29;20912;-88
2020/12/24 11:42:35;;;;;;;1.73;1.10;;;10.20;99.90;;;;;;4916146;29;20475;-87
2020/12/24 11:45:06;;;;;;;1.10;1.00;;;10.10;99.90;;;;;;4919417;29;20428;-89
2020/12/24 11:48:11;;;;;;;1.10;0.97;;;10.00;99.90;;;;;;4931727;29;20437;-88
2020/12/24 11:50:51;;;;;;;1.40;1.20;;;9.90;99.90;;;;;;4924136;29;20563;-87
2020/12/24 11:53:53;;;;;;;2.23;1.47;;;9.80;99.90;;;;;;4904029;29;20440;-90
2020/12/24 11:56:33;;;;;;;1.60;1.20;;;9.70;99.90;;;;;;4935659;29;20450;-90
2020/12/24 11:59:01;;;;;;;2.03;1.00;;;9.70;99.90;;;;;;4912755;29;20475;-87
2020/12/24 12:01:38;;;;;;;1.43;1.03;;;9.60;99.90;;;;;;4918299;29;20480;-89
2020/12/24 12:04:12;;;;;;;1.30;1.07;;;9.50;99.90;;;;;;4933067;29;20463;-86
2020/12/24 12:06:54;;;;;;;1.40;1.20;;;9.40;99.90;;;;;;4914604;29;20443;-87
2020/12/24 12:09:29;;;;;;;6.13;1.30;;;9.40;99.90;;;;;;4913446;29;20441;-90
2020/12/24 12:11:54;;;;;;;2.07;1.00;;;9.40;99.90;;;;;;4912457;29;20503;-85
2020/12/24 12:14:20;;;;;;;1.50;1.40;;;9.50;99.90;;;;;;4932679;29;20468;-87
2020/12/24 14:46:07;;;;;;;1.50;1.40;;;8.20;99.90;;;;;;5024136;23;20501;-91
2020/12/24 14:49:21;;;;;;;2.23;1.90;;;8.20;99.90;;;;;;4948351;28;20545;-89
2020/12/24 14:55:16;;;;;;;1.40;1.30;;;8.20;99.90;;;;;;4912027;28;20852;-88
2020/12/24 14:57:41;;;;;;;1.40;1.30;;;8.20;99.90;;;;;;4935014;28;20462;-87
2020/12/24 15:00:10;;;;;;;1.10;1.00;;;8.20;99.90;;;;;;4954679;28;20496;-88
2020/12/24 15:02:35;;;;;;;1.47;1.30;;;8.10;99.90;;;;;;4927194;28;20687;-86
2020/12/24 15:05:01;;;;;;;1.77;1.30;;;8.10;99.90;;;;;;4936699;28;20534;-81
2020/12/24 15:07:26;;;;;;;1.20;1.07;;;8.10;99.90;;;;;;4936274;28;20195;-85
2020/12/24 15:09:55;;;;;;;1.77;1.10;;;8.10;99.90;;;;;;4955540;28;20658;-85
2020/12/24 15:12:20;;;;;;;1.30;1.20;;;8.10;99.90;;;;;;4923418;28;20207;-88
2020/12/24 15:14:46;;;;;;;1.57;1.20;;;8.00;99.90;;;;;;4923645;28;20472;-89
2020/12/24 15:17:18;;;;;;;1.27;1.17;;;8.10;99.90;;;;;;4953391;28;20187;-87
2020/12/24 15:19:43;;;;;;;1.50;1.40;;;8.10;99.90;;;;;;4937788;28;20234;-87
2020/12/24 15:22:09;;;;;;;2.33;1.67;;;8.00;99.90;;;;;;4935711;28;21018;-87
2020/12/24 15:24:35;;;;;;;2.17;1.50;;;8.10;99.90;;;;;;4955532;28;20275;-89
2020/12/24 15:27:00;;;;;;;1.40;1.30;;;8.10;99.90;;;;;;4952070;28;20606;-89
2020/12/24 15:29:26;;;;;;;1.47;1.20;;;8.10;99.90;;;;;;4953393;28;20199;-86
2020/12/24 15:31:51;;;;;;;1.40;1.30;;;8.10;99.90;;;;;;4954506;28;20187;-88
2020/12/24 15:34:17;;;;;;;1.67;1.40;;;8.10;99.90;;;;;;4935909;28;20673;-88
2020/12/24 15:36:43;;;;;;;1.50;1.40;;;8.10;99.90;;;;;;4955232;28;20572;-85
2020/12/24 15:39:08;;;;;;;1.70;1.23;;;8.10;99.90;;;;;;4933167;28;20191;-88
2020/12/24 15:41:34;;;;;;;2.13;1.60;;;8.10;99.90;;;;;;4938472;28;20244;-88
2020/12/24 15:44:00;;;;;;;1.80;1.50;;;8.10;99.90;;;;;;4949445;28;20186;-88
2020/12/24 15:46:29;;;;;;;1.37;1.27;;;8.10;99.90;;;;;;4953467;28;20587;-87
2020/12/24 15:48:55;;;;;;;4.10;2.47;;;8.10;99.90;;;;;;4950471;28;20195;-91
2020/12/24 15:51:21;;;;;;;2.00;1.47;;;8.10;99.90;;;;;;4960644;28;20453;-87
2020/12/24 15:53:47;;;;;;;2.13;1.93;;;8.10;99.90;;;;;;4946180;28;20430;-87
2020/12/24 15:56:21;;;;;;;1.60;1.50;;;8.10;99.90;;;;;;4947667;28;20187;-85
2020/12/24 15:58:46;;;;;;;5.10;2.87;;;8.10;99.90;;;;;;4963164;28;20178;-87
2020/12/24 16:01:12;;;;;;;5.87;3.40;;;8.10;99.90;;;;;;4959804;28;20506;-87
2020/12/24 16:03:37;;;;;;;6.50;3.87;;;8.10;99.90;;;;;;4955953;28;20180;-88
2020/12/24 16:06:03;;;;;;;5.70;3.23;;;8.10;99.90;;;;;;4956039;28;20186;-86
2020/12/24 16:08:29;;;;;;;5.50;2.70;;;8.10;99.90;;;;;;4940580;28;20195;-88
2020/12/24 16:10:54;;;;;;;5.17;3.70;;;8.10;99.90;;;;;;4941686;28;20222;-88
2020/12/24 16:13:20;;;;;;;2.90;1.90;;;8.10;99.90;;;;;;4940000;28;20262;-86
2020/12/24 16:15:45;;;;;;;3.70;2.30;;;8.10;99.90;;;;;;4955663;28;20210;-85
2020/12/24 16:18:11;;;;;;;2.23;1.93;;;8.20;99.90;;;;;;4939431;28;20180;-88
2020/12/24 16:20:37;;;;;;;2.93;1.80;;;8.10;99.90;;;;;;4928797;28;20231;-90
2020/12/24 16:23:02;;;;;;;2.97;1.90;;;8.10;99.90;;;;;;4951196;28;20212;-88
2020/12/24 16:25:28;;;;;;;1.77;1.67;;;8.10;99.90;;;;;;4961829;28;20195;-86
2020/12/24 16:27:53;;;;;;;2.60;1.80;;;8.00;99.90;;;;;;4957758;28;20196;-87
2020/12/24 16:30:19;;;;;;;1.87;1.37;;;8.10;99.90;;;;;;4935735;28;20213;-87
2020/12/24 16:32:46;;;;;;;1.67;1.50;;;8.00;99.90;;;;;;4943119;28;20187;-89
2020/12/24 16:35:12;;;;;;;1.70;1.60;;;7.90;99.90;;;;;;4941947;28;20193;-89
2020/12/24 16:37:38;;;;;;;2.33;1.50;;;7.90;99.90;;;;;;4943102;28;20819;-89
2020/12/24 16:40:03;;;;;;;1.50;1.30;;;7.90;99.90;;;;;;4961549;28;20319;-86
2020/12/24 16:42:32;;;;;;;3.57;1.53;;;7.80;99.90;;;;;;4963722;28;20203;-88
2020/12/24 16:44:58;;;;;;;2.10;1.80;;;7.80;99.90;;;;;;4955395;28;20192;-89
2020/12/24 16:47:23;;;;;;;1.70;1.50;;;7.80;99.90;;;;;;4962291;28;20450;-88
2020/12/24 16:49:49;;;;;;;2.20;1.90;;;7.90;99.90;;;;;;4960479;28;20215;-86
2020/12/24 16:52:17;;;;;;;2.03;1.90;;;7.80;99.90;;;;;;4960496;28;20198;-87
2020/12/24 16:54:43;;;;;;;6.00;2.37;;;7.80;99.90;;;;;;4938788;28;20202;-83
2020/12/24 16:57:09;;;;;;;3.27;2.33;;;7.80;99.90;;;;;;4958289;28;20438;-87
2020/12/24 16:59:35;;;;;;;2.00;1.80;;;7.80;99.90;;;;;;4936285;28;20463;-86
2020/12/24 17:02:01;;;;;;;3.60;2.10;;;7.80;99.90;;;;;;4958411;28;20471;-88
2020/12/24 17:04:26;;;;;;;2.47;2.17;;;7.80;99.90;;;;;;4945998;28;20183;-86
2020/12/24 17:06:53;;;;;;;2.80;2.40;;;7.70;99.90;;;;;;4907625;28;20657;-89
2020/12/24 17:09:19;;;;;;;4.53;2.10;;;7.70;99.90;;;;;;4960315;28;20206;-90
2020/12/24 17:11:45;;;;;;;9.63;2.40;;;7.70;99.90;;;;;;4963828;28;21670;-88
2020/12/24 17:14:11;;;;;;;2.07;1.87;;;7.70;99.90;;;;;;4956967;28;20491;-87
2020/12/24 17:16:40;;;;;;;2.57;2.07;;;7.70;99.90;;;;;;4942316;28;20447;-89
2020/12/24 17:19:06;;;;;;;2.13;1.97;;;7.70;99.90;;;;;;4958193;28;20187;-86
2020/12/24 17:21:32;;;;;;;2.03;1.83;;;7.70;99.90;;;;;;4941049;28;20486;-88
2020/12/24 17:23:58;;;;;;;2.17;1.97;;;7.70;99.90;;;;;;4954530;28;20438;-87
2020/12/24 17:26:25;;;;;;;2.70;1.90;;;7.70;99.90;;;;;;4940677;28;20564;-88
2020/12/24 17:28:51;;;;;;;2.53;1.70;;;7.80;99.90;;;;;;4939932;28;20195;-88
2020/12/24 17:31:19;;;;;;;3.43;2.00;;;7.70;99.90;;;;;;4941031;28;20546;-90
2020/12/24 17:33:52;;;;;;;2.77;2.23;;;7.70;99.90;;;;;;4955075;28;20749;-86
2020/12/24 17:36:18;;;;;;;3.20;2.33;;;7.70;99.90;;;;;;4921132;28;20453;-91
2020/12/24 17:38:45;;;;;;;2.40;2.20;;;7.80;99.90;;;;;;4957312;28;20475;-90
2020/12/24 17:41:11;;;;;;;2.20;2.00;;;7.70;99.90;;;;;;4927935;28;20474;-89
2020/12/24 17:43:38;;;;;;;2.23;1.77;;;7.70;99.90;;;;;;4957989;28;20446;-88
2020/12/24 17:46:04;;;;;;;4.73;2.10;;;7.70;99.90;;;;;;4938604;28;20541;-89
2020/12/24 17:48:30;;;;;;;3.33;1.90;;;7.70;99.90;;;;;;4956641;28;20442;-90
2020/12/24 17:50:55;;;;;;;2.03;1.60;;;7.70;99.90;;;;;;4955786;28;20466;-89
2020/12/24 17:53:21;;;;;;;3.03;2.80;;;7.70;99.90;;;;;;4938600;28;20581;-89
2020/12/24 17:55:47;;;;;;;2.10;1.83;;;7.70;99.90;;;;;;4930757;28;20249;-86
2020/12/24 17:58:12;;;;;;;2.30;1.40;;;7.70;99.90;;;;;;4942469;28;20200;-86
2020/12/24 18:00:38;;;;;;;2.10;1.90;;;7.60;99.90;;;;;;4933892;28;20225;-87
2020/12/24 18:03:04;;;;;;;2.20;2.00;;;7.70;99.90;;;;;;4934417;28;20219;-89
2020/12/24 18:05:49;;;;;;;2.80;2.13;;;7.60;99.90;;;;;;4934996;28;20195;-87
2020/12/24 18:09:05;;;;;;;2.07;1.87;;;7.60;99.90;;;;;;4936475;29;20191;-88
2020/12/24 18:53:26;;;;;;;2.20;1.63;;;5.20;99.90;;;;;;5021549;23;20505;-89
2020/12/24 18:55:57;;;;;;;1.40;1.30;;;4.90;99.90;;;;;;4950804;28;20472;-90
2020/12/24 19:02:04;;;;;;;1.50;1.30;;;4.70;99.90;;;;;;4911694;29;20495;-88
2020/12/24 19:07:45;;;;;;;2.43;1.70;;;4.70;99.90;;;;;;4875373;29;20434;-89
2020/12/24 19:15:34;;;;;;;1.60;1.40;;;4.60;99.90;;;;;;4177175;26;20480;-89
2020/12/24 19:18:06;;;;;;;2.43;1.40;;;4.60;99.90;;;;;;4955999;28;20468;-86
2020/12/24 19:20:32;;;;;;;1.27;1.00;;;4.60;99.90;;;;;;4944324;28;20486;-88
2020/12/24 19:23:03;;;;;;;1.27;1.17;;;4.60;99.90;;;;;;4954134;28;20438;-90
2020/12/24 19:25:44;;;;;;;1.60;1.50;;;4.50;99.90;;;;;;4959405;29;20226;-89
2020/12/24 19:28:18;;;;;;;3.13;1.73;;;4.50;99.90;;;;;;4935583;28;20450;-88
2020/12/24 19:30:52;;;;;;;1.50;1.40;;;4.60;99.90;;;;;;4936695;29;20456;-90
2020/12/24 19:33:21;;;;;;;2.10;1.70;;;4.50;99.90;;;;;;4927671;28;20432;-89
2020/12/24 19:36:38;;;;;;;2.60;1.60;;;4.50;99.90;;;;;;4940789;29;20509;-91
2020/12/24 19:42:39;;;;;;;;;;;;;;;;;;;;;
2020/12/24 19:52:52;;;;;;;;;;;;;;;;;;;;;
2020/12/24 22:48:48;;;;;;;4.37;3.27;;;2.50;99.90;;;;;;4485696;23;21081;-88
2020/12/24 22:51:13;;;;;;;5.67;3.67;;;2.50;99.90;;;;;;4926424;28;20474;-87
2020/12/24 22:53:39;;;;;;;3.90;3.20;;;2.50;99.90;;;;;;4942860;28;20483;-85
2020/12/24 22:56:11;;;;;;;4.77;3.77;;;2.40;99.90;;;;;;4926625;28;20187;-88
2020/12/24 22:58:37;;;;;;;4.03;2.70;;;2.40;99.90;;;;;;4931572;28;20199;-86
2020/12/24 23:01:04;;;;;;;4.47;2.23;;;2.30;99.90;;;;;;4926094;28;20453;-87